sensor_id;sensor_type;location;lat;lon;timestamp;P1;durP1;ratioP1;P2;durP2;ratioP2
26806;SDS011;14380;49.910;6.792;2023-04-01T00:01:14;13.27;;;1.58;;
26806;SDS011;14380;49.910;6.792;2023-04-01T00:03:41;7.60;;;1.52;;
26806;SDS011;14380;49.910;6.792;2023-04-01T00:06:09;13.70;;;1.75;;
26806;SDS011;14380;49.910;6.792;2023-04-01T00:08:37;7.85;;;1.63;;
26806;SDS011;14380;49.910;6.792;2023-04-01T00:11:04;6.55;;;1.20;;
26806;SDS011;14380;49.910;6.792;2023-04-01T00:13:31;7.82;;;1.38;;
26806;SDS011;14380;49.910;6.792;2023-04-01T00:15:59;9.52;;;1.35;;
26806;SDS011;14380;49.910;6.792;2023-04-01T00:18:26;8.70;;;1.40;;
26806;SDS011;14380;49.910;6.792;2023-04-01T00:20:53;7.70;;;1.52;;
26806;SDS011;14380;49.910;6.792;2023-04-01T00:23:20;8.52;;;1.20;;
26806;SDS011;14380;49.910;6.792;2023-04-01T00:25:47;7.38;;;1.17;;
26806;SDS011;14380;49.910;6.792;2023-04-01T00:28:15;5.55;;;1.02;;
26806;SDS011;14380;49.910;6.792;2023-04-01T00:30:42;12.63;;;1.70;;
26806;SDS011;14380;49.910;6.792;2023-04-01T00:33:12;9.57;;;1.67;;
26806;SDS011;14380;49.910;6.792;2023-04-01T00:35:39;9.23;;;1.52;;
26806;SDS011;14380;49.910;6.792;2023-04-01T00:38:06;7.53;;;1.40;;
26806;SDS011;14380;49.910;6.792;2023-04-01T00:40:34;9.75;;;1.33;;
26806;SDS011;14380;49.910;6.792;2023-04-01T00:43:03;11.50;;;1.20;;
26806;SDS011;14380;49.910;6.792;2023-04-01T00:45:36;8.70;;;1.20;;
26806;SDS011;14380;49.910;6.792;2023-04-01T00:48:05;8.82;;;1.60;;
26806;SDS011;14380;49.910;6.792;2023-04-01T00:50:37;7.95;;;1.25;;
26806;SDS011;14380;49.910;6.792;2023-04-01T00:53:08;10.05;;;1.50;;
26806;SDS011;14380;49.910;6.792;2023-04-01T00:55:36;7.53;;;1.60;;
26806;SDS011;14380;49.910;6.792;2023-04-01T00:58:07;6.70;;;1.02;;
26806;SDS011;14380;49.910;6.792;2023-04-01T01:00:37;5.07;;;1.02;;
26806;SDS011;14380;49.910;6.792;2023-04-01T01:03:05;8.57;;;1.58;;
26806;SDS011;14380;49.910;6.792;2023-04-01T01:05:36;8.10;;;1.40;;
26806;SDS011;14380;49.910;6.792;2023-04-01T01:08:13;10.88;;;1.20;;
26806;SDS011;14380;49.910;6.792;2023-04-01T01:10:50;7.00;;;1.02;;
26806;SDS011;14380;49.910;6.792;2023-04-01T01:13:17;6.03;;;1.05;;
26806;SDS011;14380;49.910;6.792;2023-04-01T01:15:53;7.85;;;2.13;;
26806;SDS011;14380;49.910;6.792;2023-04-01T01:18:26;8.00;;;1.88;;
26806;SDS011;14380;49.910;6.792;2023-04-01T01:24:08;7.70;;;1.85;;
26806;SDS011;14380;49.910;6.792;2023-04-01T01:26:56;10.15;;;1.88;;
26806;SDS011;14380;49.910;6.792;2023-04-01T01:32:16;6.97;;;1.27;;
26806;SDS011;14380;49.910;6.792;2023-04-01T01:34:51;10.23;;;1.42;;
26806;SDS011;14380;49.910;6.792;2023-04-01T01:37:25;15.95;;;2.10;;
26806;SDS011;14380;49.910;6.792;2023-04-01T01:39:56;13.27;;;1.70;;
26806;SDS011;14380;49.910;6.792;2023-04-01T01:42:27;8.13;;;1.20;;
26806;SDS011;14380;49.910;6.792;2023-04-01T01:44:57;10.63;;;1.67;;
26806;SDS011;14380;49.910;6.792;2023-04-01T01:47:26;6.47;;;1.02;;
26806;SDS011;14380;49.910;6.792;2023-04-01T01:49:54;8.68;;;1.77;;
26806;SDS011;14380;49.910;6.792;2023-04-01T01:52:22;13.10;;;2.25;;
26806;SDS011;14380;49.910;6.792;2023-04-01T01:54:53;7.15;;;1.23;;
26806;SDS011;14380;49.910;6.792;2023-04-01T01:57:22;8.93;;;1.38;;
26806;SDS011;14380;49.910;6.792;2023-04-01T01:59:51;9.55;;;1.70;;
26806;SDS011;14380;49.910;6.792;2023-04-01T02:02:21;11.48;;;1.75;;
26806;SDS011;14380;49.910;6.792;2023-04-01T02:04:49;7.38;;;1.10;;
26806;SDS011;14380;49.910;6.792;2023-04-01T02:07:18;10.98;;;1.30;;
26806;SDS011;14380;49.910;6.792;2023-04-01T02:09:49;8.05;;;1.83;;
26806;SDS011;14380;49.910;6.792;2023-04-01T02:12:16;8.30;;;1.23;;
26806;SDS011;14380;49.910;6.792;2023-04-01T02:14:45;5.32;;;1.02;;
26806;SDS011;14380;49.910;6.792;2023-04-01T02:17:17;10.32;;;1.60;;
26806;SDS011;14380;49.910;6.792;2023-04-01T02:19:46;9.45;;;1.30;;
26806;SDS011;14380;49.910;6.792;2023-04-01T02:22:16;6.40;;;1.00;;
26806;SDS011;14380;49.910;6.792;2023-04-01T02:24:45;7.28;;;1.15;;
26806;SDS011;14380;49.910;6.792;2023-04-01T02:27:16;6.50;;;1.25;;
26806;SDS011;14380;49.910;6.792;2023-04-01T02:29:42;10.75;;;1.35;;
26806;SDS011;14380;49.910;6.792;2023-04-01T02:32:09;8.88;;;1.60;;
26806;SDS011;14380;49.910;6.792;2023-04-01T02:34:36;7.82;;;1.05;;
26806;SDS011;14380;49.910;6.792;2023-04-01T02:37:03;6.63;;;1.00;;
26806;SDS011;14380;49.910;6.792;2023-04-01T02:39:29;5.70;;;1.20;;
26806;SDS011;14380;49.910;6.792;2023-04-01T02:41:56;4.68;;;0.80;;
26806;SDS011;14380;49.910;6.792;2023-04-01T02:44:24;5.93;;;1.02;;
26806;SDS011;14380;49.910;6.792;2023-04-01T02:46:51;8.73;;;1.40;;
26806;SDS011;14380;49.910;6.792;2023-04-01T02:49:18;6.68;;;1.10;;
26806;SDS011;14380;49.910;6.792;2023-04-01T02:51:44;5.78;;;0.90;;
26806;SDS011;14380;49.910;6.792;2023-04-01T02:54:11;6.00;;;1.20;;
26806;SDS011;14380;49.910;6.792;2023-04-01T02:56:38;6.38;;;0.80;;
26806;SDS011;14380;49.910;6.792;2023-04-01T02:59:04;7.80;;;1.23;;
26806;SDS011;14380;49.910;6.792;2023-04-01T03:01:32;6.88;;;0.88;;
26806;SDS011;14380;49.910;6.792;2023-04-01T03:03:59;5.78;;;1.25;;
26806;SDS011;14380;49.910;6.792;2023-04-01T03:06:25;9.23;;;1.48;;
26806;SDS011;14380;49.910;6.792;2023-04-01T03:08:52;7.60;;;1.67;;
26806;SDS011;14380;49.910;6.792;2023-04-01T03:11:19;7.53;;;0.80;;
26806;SDS011;14380;49.910;6.792;2023-04-01T03:13:46;5.40;;;1.05;;
26806;SDS011;14380;49.910;6.792;2023-04-01T03:16:13;4.57;;;1.00;;
26806;SDS011;14380;49.910;6.792;2023-04-01T03:18:42;4.75;;;0.90;;
26806;SDS011;14380;49.910;6.792;2023-04-01T03:21:12;7.57;;;1.48;;
26806;SDS011;14380;49.910;6.792;2023-04-01T03:23:39;7.57;;;1.58;;
26806;SDS011;14380;49.910;6.792;2023-04-01T03:26:06;9.50;;;1.65;;
26806;SDS011;14380;49.910;6.792;2023-04-01T03:28:33;5.13;;;0.88;;
26806;SDS011;14380;49.910;6.792;2023-04-01T03:31:00;7.45;;;0.98;;
26806;SDS011;14380;49.910;6.792;2023-04-01T03:33:27;5.53;;;0.85;;
26806;SDS011;14380;49.910;6.792;2023-04-01T03:35:55;8.27;;;1.42;;
26806;SDS011;14380;49.910;6.792;2023-04-01T03:38:22;6.45;;;1.00;;
26806;SDS011;14380;49.910;6.792;2023-04-01T03:40:48;8.65;;;1.58;;
26806;SDS011;14380;49.910;6.792;2023-04-01T03:43:15;6.88;;;1.40;;
26806;SDS011;14380;49.910;6.792;2023-04-01T03:45:43;5.43;;;0.90;;
26806;SDS011;14380;49.910;6.792;2023-04-01T03:48:11;7.57;;;1.00;;
26806;SDS011;14380;49.910;6.792;2023-04-01T03:50:37;7.80;;;1.30;;
26806;SDS011;14380;49.910;6.792;2023-04-01T03:53:06;6.22;;;1.10;;
26806;SDS011;14380;49.910;6.792;2023-04-01T03:55:33;6.13;;;1.00;;
26806;SDS011;14380;49.910;6.792;2023-04-01T03:58:01;3.55;;;0.60;;
26806;SDS011;14380;49.910;6.792;2023-04-01T04:00:28;8.55;;;1.48;;
26806;SDS011;14380;49.910;6.792;2023-04-01T04:02:55;6.13;;;1.33;;
26806;SDS011;14380;49.910;6.792;2023-04-01T04:05:22;3.40;;;0.60;;
26806;SDS011;14380;49.910;6.792;2023-04-01T04:07:49;4.43;;;0.70;;
26806;SDS011;14380;49.910;6.792;2023-04-01T04:10:17;5.15;;;0.90;;
26806;SDS011;14380;49.910;6.792;2023-04-01T04:12:44;5.20;;;0.77;;
26806;SDS011;14380;49.910;6.792;2023-04-01T04:15:11;2.75;;;0.77;;
26806;SDS011;14380;49.910;6.792;2023-04-01T04:17:38;2.35;;;0.50;;
26806;SDS011;14380;49.910;6.792;2023-04-01T04:20:06;6.63;;;0.95;;
26806;SDS011;14380;49.910;6.792;2023-04-01T04:22:34;2.53;;;0.80;;
26806;SDS011;14380;49.910;6.792;2023-04-01T04:25:00;7.18;;;0.85;;
26806;SDS011;14380;49.910;6.792;2023-04-01T04:27:29;3.97;;;0.80;;
26806;SDS011;14380;49.910;6.792;2023-04-01T04:29:55;5.80;;;0.85;;
26806;SDS011;14380;49.910;6.792;2023-04-01T04:32:22;4.75;;;0.90;;
26806;SDS011;14380;49.910;6.792;2023-04-01T04:34:49;6.10;;;1.20;;
26806;SDS011;14380;49.910;6.792;2023-04-01T04:37:16;4.93;;;0.73;;
26806;SDS011;14380;49.910;6.792;2023-04-01T04:39:42;2.75;;;0.55;;
26806;SDS011;14380;49.910;6.792;2023-04-01T04:42:09;5.05;;;0.82;;
26806;SDS011;14380;49.910;6.792;2023-04-01T04:44:37;2.83;;;0.70;;
26806;SDS011;14380;49.910;6.792;2023-04-01T04:47:05;3.13;;;0.80;;
26806;SDS011;14380;49.910;6.792;2023-04-01T04:49:31;3.88;;;0.93;;
26806;SDS011;14380;49.910;6.792;2023-04-01T04:51:58;3.45;;;0.70;;
26806;SDS011;14380;49.910;6.792;2023-04-01T04:54:25;7.20;;;0.90;;
26806;SDS011;14380;49.910;6.792;2023-04-01T04:56:52;2.15;;;0.45;;
26806;SDS011;14380;49.910;6.792;2023-04-01T04:59:19;4.40;;;0.90;;
26806;SDS011;14380;49.910;6.792;2023-04-01T05:01:47;4.22;;;0.70;;
26806;SDS011;14380;49.910;6.792;2023-04-01T05:04:17;3.80;;;0.63;;
26806;SDS011;14380;49.910;6.792;2023-04-01T05:06:44;3.33;;;0.60;;
26806;SDS011;14380;49.910;6.792;2023-04-01T05:09:11;1.63;;;0.57;;
26806;SDS011;14380;49.910;6.792;2023-04-01T05:11:37;5.00;;;0.50;;
26806;SDS011;14380;49.910;6.792;2023-04-01T05:14:05;3.58;;;0.80;;
26806;SDS011;14380;49.910;6.792;2023-04-01T05:16:31;2.08;;;0.45;;
26806;SDS011;14380;49.910;6.792;2023-04-01T05:18:59;4.78;;;0.60;;
26806;SDS011;14380;49.910;6.792;2023-04-01T05:21:26;2.38;;;0.50;;
26806;SDS011;14380;49.910;6.792;2023-04-01T05:23:53;1.33;;;0.40;;
26806;SDS011;14380;49.910;6.792;2023-04-01T05:26:20;0.98;;;0.30;;
26806;SDS011;14380;49.910;6.792;2023-04-01T05:28:46;1.90;;;0.50;;
26806;SDS011;14380;49.910;6.792;2023-04-01T05:31:13;2.97;;;0.75;;
26806;SDS011;14380;49.910;6.792;2023-04-01T05:33:40;4.18;;;0.68;;
26806;SDS011;14380;49.910;6.792;2023-04-01T05:36:09;2.25;;;0.30;;
26806;SDS011;14380;49.910;6.792;2023-04-01T05:38:36;2.80;;;0.40;;
26806;SDS011;14380;49.910;6.792;2023-04-01T05:41:03;1.42;;;0.45;;
26806;SDS011;14380;49.910;6.792;2023-04-01T05:43:30;1.38;;;0.40;;
26806;SDS011;14380;49.910;6.792;2023-04-01T05:45:57;1.50;;;0.50;;
26806;SDS011;14380;49.910;6.792;2023-04-01T05:48:24;4.15;;;0.50;;
26806;SDS011;14380;49.910;6.792;2023-04-01T05:50:51;0.95;;;0.30;;
26806;SDS011;14380;49.910;6.792;2023-04-01T05:53:19;2.22;;;0.50;;
26806;SDS011;14380;49.910;6.792;2023-04-01T05:55:45;4.43;;;0.82;;
26806;SDS011;14380;49.910;6.792;2023-04-01T05:58:12;1.55;;;0.50;;
26806;SDS011;14380;49.910;6.792;2023-04-01T06:00:39;1.17;;;0.38;;
26806;SDS011;14380;49.910;6.792;2023-04-01T06:03:05;0.98;;;0.38;;
26806;SDS011;14380;49.910;6.792;2023-04-01T06:05:36;3.53;;;0.30;;
26806;SDS011;14380;49.910;6.792;2023-04-01T06:08:09;3.35;;;0.90;;
26806;SDS011;14380;49.910;6.792;2023-04-01T06:10:41;1.30;;;0.20;;
26806;SDS011;14380;49.910;6.792;2023-04-01T06:13:18;0.85;;;0.52;;
26806;SDS011;14380;49.910;6.792;2023-04-01T06:15:52;0.28;;;0.20;;
26806;SDS011;14380;49.910;6.792;2023-04-01T06:18:41;3.70;;;0.60;;
26806;SDS011;14380;49.910;6.792;2023-04-01T06:21:21;1.02;;;0.30;;
26806;SDS011;14380;49.910;6.792;2023-04-01T06:24:01;0.52;;;0.20;;
26806;SDS011;14380;49.910;6.792;2023-04-01T06:26:43;0.95;;;0.30;;
26806;SDS011;14380;49.910;6.792;2023-04-01T06:29:20;1.70;;;0.30;;
26806;SDS011;14380;49.910;6.792;2023-04-01T06:32:11;0.25;;;0.20;;
26806;SDS011;14380;49.910;6.792;2023-04-01T06:34:52;3.20;;;1.00;;
26806;SDS011;14380;49.910;6.792;2023-04-01T06:37:35;0.60;;;0.20;;
26806;SDS011;14380;49.910;6.792;2023-04-01T06:40:20;1.05;;;0.30;;
26806;SDS011;14380;49.910;6.792;2023-04-01T06:43:02;0.98;;;0.10;;
26806;SDS011;14380;49.910;6.792;2023-04-01T06:45:40;1.55;;;0.30;;
26806;SDS011;14380;49.910;6.792;2023-04-01T06:48:29;0.60;;;0.20;;
26806;SDS011;14380;49.910;6.792;2023-04-01T06:51:11;1.33;;;0.43;;
26806;SDS011;14380;49.910;6.792;2023-04-01T06:53:46;0.30;;;0.20;;
26806;SDS011;14380;49.910;6.792;2023-04-01T06:56:21;1.15;;;0.20;;
26806;SDS011;14380;49.910;6.792;2023-04-01T06:58:54;0.68;;;0.40;;
26806;SDS011;14380;49.910;6.792;2023-04-01T07:01:25;0.30;;;0.30;;
26806;SDS011;14380;49.910;6.792;2023-04-01T07:03:57;5.18;;;0.20;;
26806;SDS011;14380;49.910;6.792;2023-04-01T07:06:28;0.90;;;0.60;;
26806;SDS011;14380;49.910;6.792;2023-04-01T07:08:59;3.65;;;0.40;;
26806;SDS011;14380;49.910;6.792;2023-04-01T07:11:31;0.65;;;0.20;;
26806;SDS011;14380;49.910;6.792;2023-04-01T07:14:03;0.52;;;0.20;;
26806;SDS011;14380;49.910;6.792;2023-04-01T07:16:37;0.90;;;0.35;;
26806;SDS011;14380;49.910;6.792;2023-04-01T07:19:12;0.28;;;0.20;;
26806;SDS011;14380;49.910;6.792;2023-04-01T07:21:43;1.65;;;0.50;;
26806;SDS011;14380;49.910;6.792;2023-04-01T07:24:15;1.77;;;0.40;;
26806;SDS011;14380;49.910;6.792;2023-04-01T07:26:48;0.88;;;0.20;;
26806;SDS011;14380;49.910;6.792;2023-04-01T07:29:21;0.32;;;0.30;;
26806;SDS011;14380;49.910;6.792;2023-04-01T07:31:52;0.40;;;0.20;;
26806;SDS011;14380;49.910;6.792;2023-04-01T07:34:36;0.10;;;0.10;;
26806;SDS011;14380;49.910;6.792;2023-04-01T07:37:13;0.43;;;0.30;;
26806;SDS011;14380;49.910;6.792;2023-04-01T07:39:45;1.00;;;0.43;;
26806;SDS011;14380;49.910;6.792;2023-04-01T07:42:23;0.88;;;0.57;;
26806;SDS011;14380;49.910;6.792;2023-04-01T07:45:01;0.77;;;0.20;;
26806;SDS011;14380;49.910;6.792;2023-04-01T07:47:43;0.45;;;0.30;;
26806;SDS011;14380;49.910;6.792;2023-04-01T07:50:19;0.38;;;0.20;;
26806;SDS011;14380;49.910;6.792;2023-04-01T07:52:53;2.22;;;0.20;;
26806;SDS011;14380;49.910;6.792;2023-04-01T07:55:32;0.55;;;0.30;;
26806;SDS011;14380;49.910;6.792;2023-04-01T07:58:08;0.63;;;0.20;;
26806;SDS011;14380;49.910;6.792;2023-04-01T08:00:42;0.50;;;0.50;;
26806;SDS011;14380;49.910;6.792;2023-04-01T08:03:18;0.20;;;0.20;;
26806;SDS011;14380;49.910;6.792;2023-04-01T08:05:57;0.45;;;0.10;;
26806;SDS011;14380;49.910;6.792;2023-04-01T08:08:29;1.63;;;0.25;;
26806;SDS011;14380;49.910;6.792;2023-04-01T08:11:08;0.25;;;0.25;;
26806;SDS011;14380;49.910;6.792;2023-04-01T08:13:49;0.40;;;0.30;;
26806;SDS011;14380;49.910;6.792;2023-04-01T08:16:28;0.65;;;0.22;;
26806;SDS011;14380;49.910;6.792;2023-04-01T08:19:03;0.35;;;0.35;;
26806;SDS011;14380;49.910;6.792;2023-04-01T08:21:43;0.20;;;0.10;;
26806;SDS011;14380;49.910;6.792;2023-04-01T08:24:22;0.73;;;0.30;;
26806;SDS011;14380;49.910;6.792;2023-04-01T08:26:54;0.90;;;0.30;;
26806;SDS011;14380;49.910;6.792;2023-04-01T08:29:24;0.10;;;0.10;;
26806;SDS011;14380;49.910;6.792;2023-04-01T08:31:59;0.20;;;0.20;;
26806;SDS011;14380;49.910;6.792;2023-04-01T08:34:33;0.43;;;0.10;;
26806;SDS011;14380;49.910;6.792;2023-04-01T08:37:04;0.40;;;0.40;;
26806;SDS011;14380;49.910;6.792;2023-04-01T08:39:35;0.77;;;0.20;;
26806;SDS011;14380;49.910;6.792;2023-04-01T08:42:13;0.10;;;0.10;;
26806;SDS011;14380;49.910;6.792;2023-04-01T08:45:04;0.20;;;0.10;;
26806;SDS011;14380;49.910;6.792;2023-04-01T08:48:07;0.25;;;0.20;;
26806;SDS011;14380;49.910;6.792;2023-04-01T08:51:03;0.13;;;0.13;;
26806;SDS011;14380;49.910;6.792;2023-04-01T08:53:49;1.25;;;0.30;;
26806;SDS011;14380;49.910;6.792;2023-04-01T08:56:30;0.20;;;0.20;;
26806;SDS011;14380;49.910;6.792;2023-04-01T08:59:06;0.70;;;0.22;;
26806;SDS011;14380;49.910;6.792;2023-04-01T09:01:44;0.20;;;0.20;;
26806;SDS011;14380;49.910;6.792;2023-04-01T09:04:27;0.80;;;0.30;;
26806;SDS011;14380;49.910;6.792;2023-04-01T09:07:11;0.20;;;0.20;;
26806;SDS011;14380;49.910;6.792;2023-04-01T09:09:57;0.80;;;0.30;;
26806;SDS011;14380;49.910;6.792;2023-04-01T09:12:50;0.15;;;0.15;;
26806;SDS011;14380;49.910;6.792;2023-04-01T09:15:28;0.25;;;0.20;;
26806;SDS011;14380;49.910;6.792;2023-04-01T09:18:13;0.20;;;0.20;;
26806;SDS011;14380;49.910;6.792;2023-04-01T09:20:55;0.10;;;0.10;;
26806;SDS011;14380;49.910;6.792;2023-04-01T09:26:39;0.28;;;0.20;;
26806;SDS011;14380;49.910;6.792;2023-04-01T09:29:19;0.22;;;0.22;;
26806;SDS011;14380;49.910;6.792;2023-04-01T09:32:18;0.25;;;0.17;;
26806;SDS011;14380;49.910;6.792;2023-04-01T09:35:06;0.20;;;0.20;;
26806;SDS011;14380;49.910;6.792;2023-04-01T09:37:51;0.20;;;0.20;;
26806;SDS011;14380;49.910;6.792;2023-04-01T09:40:22;0.00;;;0.00;;
26806;SDS011;14380;49.910;6.792;2023-04-01T09:43:12;0.10;;;0.10;;
26806;SDS011;14380;49.910;6.792;2023-04-01T09:45:53;0.28;;;0.17;;
26806;SDS011;14380;49.910;6.792;2023-04-01T09:48:43;0.65;;;0.20;;
26806;SDS011;14380;49.910;6.792;2023-04-01T09:51:23;0.17;;;0.17;;
26806;SDS011;14380;49.910;6.792;2023-04-01T09:54:13;0.28;;;0.10;;
26806;SDS011;14380;49.910;6.792;2023-04-01T10:09:49;0.10;;;0.10;;
26806;SDS011;14380;49.910;6.792;2023-04-01T10:12:49;0.00;;;0.00;;
26806;SDS011;14380;49.910;6.792;2023-04-01T10:15:47;0.10;;;0.10;;
26806;SDS011;14380;49.910;6.792;2023-04-01T10:18:46;0.20;;;0.20;;
26806;SDS011;14380;49.910;6.792;2023-04-01T10:21:37;0.15;;;0.10;;
26806;SDS011;14380;49.910;6.792;2023-04-01T10:24:33;0.33;;;0.20;;
26806;SDS011;14380;49.910;6.792;2023-04-01T10:27:33;0.25;;;0.10;;
26806;SDS011;14380;49.910;6.792;2023-04-01T10:30:27;0.10;;;0.10;;
26806;SDS011;14380;49.910;6.792;2023-04-01T10:33:38;0.10;;;0.10;;
26806;SDS011;14380;49.910;6.792;2023-04-01T10:36:32;0.38;;;0.30;;
26806;SDS011;14380;49.910;6.792;2023-04-01T10:42:48;0.65;;;0.10;;
26806;SDS011;14380;49.910;6.792;2023-04-01T10:45:52;0.17;;;0.17;;
26806;SDS011;14380;49.910;6.792;2023-04-01T10:48:42;1.92;;;0.10;;
26806;SDS011;14380;49.910;6.792;2023-04-01T10:54:46;0.10;;;0.10;;
26806;SDS011;14380;49.910;6.792;2023-04-01T10:57:30;0.20;;;0.15;;
26806;SDS011;14380;49.910;6.792;2023-04-01T11:00:32;1.35;;;0.20;;
26806;SDS011;14380;49.910;6.792;2023-04-01T11:12:44;1.25;;;0.30;;
26806;SDS011;14380;49.910;6.792;2023-04-01T11:18:42;0.77;;;0.32;;
26806;SDS011;14380;49.910;6.792;2023-04-01T11:21:33;0.52;;;0.20;;
26806;SDS011;14380;49.910;6.792;2023-04-01T11:27:25;0.20;;;0.20;;
26806;SDS011;14380;49.910;6.792;2023-04-01T11:30:14;0.20;;;0.20;;
26806;SDS011;14380;49.910;6.792;2023-04-01T11:32:57;0.57;;;0.20;;
26806;SDS011;14380;49.910;6.792;2023-04-01T11:35:34;1.20;;;0.20;;
26806;SDS011;14380;49.910;6.792;2023-04-01T11:38:26;0.20;;;0.20;;
26806;SDS011;14380;49.910;6.792;2023-04-01T11:41:13;0.85;;;0.20;;
26806;SDS011;14380;49.910;6.792;2023-04-01T11:43:51;0.15;;;0.15;;
26806;SDS011;14380;49.910;6.792;2023-04-01T11:46:30;1.25;;;0.30;;
26806;SDS011;14380;49.910;6.792;2023-04-01T11:49:05;0.55;;;0.30;;
26806;SDS011;14380;49.910;6.792;2023-04-01T11:51:55;0.60;;;0.30;;
26806;SDS011;14380;49.910;6.792;2023-04-01T11:54:37;0.75;;;0.30;;
26806;SDS011;14380;49.910;6.792;2023-04-01T11:57:19;0.38;;;0.20;;
26806;SDS011;14380;49.910;6.792;2023-04-01T12:00:05;3.30;;;0.22;;
26806;SDS011;14380;49.910;6.792;2023-04-01T12:02:52;0.35;;;0.10;;
26806;SDS011;14380;49.910;6.792;2023-04-01T12:05:40;0.50;;;0.17;;
26806;SDS011;14380;49.910;6.792;2023-04-01T12:11:05;0.50;;;0.28;;
26806;SDS011;14380;49.910;6.792;2023-04-01T12:13:42;0.20;;;0.20;;
26806;SDS011;14380;49.910;6.792;2023-04-01T12:16:20;0.20;;;0.20;;
26806;SDS011;14380;49.910;6.792;2023-04-01T12:19:04;0.15;;;0.13;;
26806;SDS011;14380;49.910;6.792;2023-04-01T12:21:43;0.35;;;0.28;;
26806;SDS011;14380;49.910;6.792;2023-04-01T12:27:16;1.42;;;0.85;;
26806;SDS011;14380;49.910;6.792;2023-04-01T12:30:06;0.32;;;0.20;;
26806;SDS011;14380;49.910;6.792;2023-04-01T12:32:44;1.20;;;0.30;;
26806;SDS011;14380;49.910;6.792;2023-04-01T12:35:17;0.28;;;0.20;;
26806;SDS011;14380;49.910;6.792;2023-04-01T12:37:50;0.20;;;0.20;;
26806;SDS011;14380;49.910;6.792;2023-04-01T12:40:38;0.40;;;0.40;;
26806;SDS011;14380;49.910;6.792;2023-04-01T12:43:18;1.67;;;1.58;;
26806;SDS011;14380;49.910;6.792;2023-04-01T12:46:00;0.73;;;0.65;;
26806;SDS011;14380;49.910;6.792;2023-04-01T12:48:50;0.60;;;0.60;;
26806;SDS011;14380;49.910;6.792;2023-04-01T12:51:36;1.00;;;0.70;;
26806;SDS011;14380;49.910;6.792;2023-04-01T13:00:35;0.10;;;0.10;;
26806;SDS011;14380;49.910;6.792;2023-04-01T13:03:22;0.22;;;0.20;;
26806;SDS011;14380;49.910;6.792;2023-04-01T13:06:23;0.30;;;0.25;;
26806;SDS011;14380;49.910;6.792;2023-04-01T13:08:59;0.60;;;0.38;;
26806;SDS011;14380;49.910;6.792;2023-04-01T13:11:44;0.30;;;0.30;;
26806;SDS011;14380;49.910;6.792;2023-04-01T13:17:34;0.55;;;0.40;;
26806;SDS011;14380;49.910;6.792;2023-04-01T13:20:11;1.05;;;0.30;;
26806;SDS011;14380;49.910;6.792;2023-04-01T13:22:46;0.73;;;0.30;;
26806;SDS011;14380;49.910;6.792;2023-04-01T13:25:24;0.68;;;0.20;;
26806;SDS011;14380;49.910;6.792;2023-04-01T13:30:32;0.10;;;0.10;;
26806;SDS011;14380;49.910;6.792;2023-04-01T13:33:10;0.35;;;0.22;;
26806;SDS011;14380;49.910;6.792;2023-04-01T13:35:53;0.10;;;0.10;;
26806;SDS011;14380;49.910;6.792;2023-04-01T13:38:37;0.20;;;0.20;;
26806;SDS011;14380;49.910;6.792;2023-04-01T13:41:13;0.20;;;0.20;;
26806;SDS011;14380;49.910;6.792;2023-04-01T13:43:48;0.73;;;0.28;;
26806;SDS011;14380;49.910;6.792;2023-04-01T13:46:32;0.57;;;0.22;;
26806;SDS011;14380;49.910;6.792;2023-04-01T13:49:18;2.35;;;0.30;;
26806;SDS011;14380;49.910;6.792;2023-04-01T13:55:19;0.20;;;0.20;;
26806;SDS011;14380;49.910;6.792;2023-04-01T13:58:04;0.63;;;0.17;;
26806;SDS011;14380;49.910;6.792;2023-04-01T14:00:46;0.20;;;0.20;;
26806;SDS011;14380;49.910;6.792;2023-04-01T14:03:28;0.22;;;0.20;;
26806;SDS011;14380;49.910;6.792;2023-04-01T14:06:08;1.00;;;0.20;;
26806;SDS011;14380;49.910;6.792;2023-04-01T14:11:56;0.20;;;0.20;;
26806;SDS011;14380;49.910;6.792;2023-04-01T14:14:32;0.30;;;0.20;;
26806;SDS011;14380;49.910;6.792;2023-04-01T14:17:13;0.28;;;0.10;;
26806;SDS011;14380;49.910;6.792;2023-04-01T14:20:00;1.80;;;0.30;;
26806;SDS011;14380;49.910;6.792;2023-04-01T14:22:46;0.50;;;0.20;;
26806;SDS011;14380;49.910;6.792;2023-04-01T14:28:27;1.33;;;0.30;;
26806;SDS011;14380;49.910;6.792;2023-04-01T14:33:42;1.13;;;0.22;;
26806;SDS011;14380;49.910;6.792;2023-04-01T14:36:29;1.63;;;0.30;;
26806;SDS011;14380;49.910;6.792;2023-04-01T14:42:18;0.85;;;0.20;;
26806;SDS011;14380;49.910;6.792;2023-04-01T14:47:58;0.95;;;0.32;;
26806;SDS011;14380;49.910;6.792;2023-04-01T14:53:11;3.30;;;0.22;;
26806;SDS011;14380;49.910;6.792;2023-04-01T14:55:49;2.17;;;0.20;;
26806;SDS011;14380;49.910;6.792;2023-04-01T14:58:18;0.28;;;0.28;;
26806;SDS011;14380;49.910;6.792;2023-04-01T15:00:52;0.30;;;0.20;;
26806;SDS011;14380;49.910;6.792;2023-04-01T15:03:26;0.73;;;0.17;;
26806;SDS011;14380;49.910;6.792;2023-04-01T15:06:05;1.55;;;0.10;;
26806;SDS011;14380;49.910;6.792;2023-04-01T15:08:51;0.30;;;0.20;;
26806;SDS011;14380;49.910;6.792;2023-04-01T15:11:33;0.35;;;0.30;;
26806;SDS011;14380;49.910;6.792;2023-04-01T15:14:16;0.57;;;0.20;;
26806;SDS011;14380;49.910;6.792;2023-04-01T15:16:55;0.95;;;0.40;;
26806;SDS011;14380;49.910;6.792;2023-04-01T15:19:36;0.68;;;0.38;;
26806;SDS011;14380;49.910;6.792;2023-04-01T15:22:18;0.55;;;0.50;;
26806;SDS011;14380;49.910;6.792;2023-04-01T15:24:58;0.40;;;0.20;;
26806;SDS011;14380;49.910;6.792;2023-04-01T15:27:41;0.47;;;0.25;;
26806;SDS011;14380;49.910;6.792;2023-04-01T15:30:21;0.50;;;0.40;;
26806;SDS011;14380;49.910;6.792;2023-04-01T15:33:02;2.88;;;1.60;;
26806;SDS011;14380;49.910;6.792;2023-04-01T15:35:42;2.53;;;0.50;;
26806;SDS011;14380;49.910;6.792;2023-04-01T15:38:18;0.38;;;0.20;;
26806;SDS011;14380;49.910;6.792;2023-04-01T15:40:53;2.67;;;0.47;;
26806;SDS011;14380;49.910;6.792;2023-04-01T15:43:30;0.30;;;0.30;;
26806;SDS011;14380;49.910;6.792;2023-04-01T15:46:12;0.10;;;0.10;;
26806;SDS011;14380;49.910;6.792;2023-04-01T15:48:55;0.28;;;0.28;;
26806;SDS011;14380;49.910;6.792;2023-04-01T15:51:35;0.65;;;0.20;;
26806;SDS011;14380;49.910;6.792;2023-04-01T15:54:17;0.68;;;0.20;;
26806;SDS011;14380;49.910;6.792;2023-04-01T15:57:20;2.40;;;0.30;;
26806;SDS011;14380;49.910;6.792;2023-04-01T16:02:49;0.40;;;0.30;;
26806;SDS011;14380;49.910;6.792;2023-04-01T16:05:35;0.32;;;0.30;;
26806;SDS011;14380;49.910;6.792;2023-04-01T16:08:17;0.95;;;0.32;;
26806;SDS011;14380;49.910;6.792;2023-04-01T16:10:59;0.30;;;0.30;;
26806;SDS011;14380;49.910;6.792;2023-04-01T16:13:52;0.45;;;0.32;;
26806;SDS011;14380;49.910;6.792;2023-04-01T16:16:31;0.30;;;0.30;;
26806;SDS011;14380;49.910;6.792;2023-04-01T16:19:19;1.10;;;0.30;;
26806;SDS011;14380;49.910;6.792;2023-04-01T16:22:11;0.75;;;0.50;;
26806;SDS011;14380;49.910;6.792;2023-04-01T16:24:43;0.68;;;0.50;;
26806;SDS011;14380;49.910;6.792;2023-04-01T16:27:15;1.65;;;0.45;;
26806;SDS011;14380;49.910;6.792;2023-04-01T16:29:51;3.92;;;2.05;;
26806;SDS011;14380;49.910;6.792;2023-04-01T16:32:39;0.75;;;0.63;;
26806;SDS011;14380;49.910;6.792;2023-04-01T16:35:15;3.70;;;0.65;;
26806;SDS011;14380;49.910;6.792;2023-04-01T16:37:49;1.45;;;0.20;;
26806;SDS011;14380;49.910;6.792;2023-04-01T16:40:23;1.50;;;0.28;;
26806;SDS011;14380;49.910;6.792;2023-04-01T16:43:04;1.17;;;0.30;;
26806;SDS011;14380;49.910;6.792;2023-04-01T16:45:38;2.15;;;0.20;;
26806;SDS011;14380;49.910;6.792;2023-04-01T16:48:13;2.63;;;0.30;;
26806;SDS011;14380;49.910;6.792;2023-04-01T16:50:43;1.20;;;0.50;;
26806;SDS011;14380;49.910;6.792;2023-04-01T16:53:19;0.65;;;0.47;;
26806;SDS011;14380;49.910;6.792;2023-04-01T16:55:52;1.95;;;0.70;;
26806;SDS011;14380;49.910;6.792;2023-04-01T16:58:33;1.05;;;0.57;;
26806;SDS011;14380;49.910;6.792;2023-04-01T17:01:03;0.50;;;0.50;;
26806;SDS011;14380;49.910;6.792;2023-04-01T17:03:36;1.40;;;0.85;;
26806;SDS011;14380;49.910;6.792;2023-04-01T17:06:25;2.75;;;0.82;;